createdAt,value
2022-11-07T00:02:17.011Z,6.05
2022-11-07T00:04:47.977Z,5.88
2022-11-07T00:07:17.332Z,5.72
2022-11-07T00:09:47.634Z,5.76
2022-11-07T00:12:18.236Z,5.81
2022-11-07T00:14:46.644Z,5.85
2022-11-07T00:17:15.963Z,5.87
2022-11-07T00:19:44.337Z,5.93
2022-11-07T00:22:16.158Z,5.94
2022-11-07T00:24:44.651Z,5.95
2022-11-07T00:27:14.146Z,5.94
2022-11-07T00:29:42.893Z,5.89
2022-11-07T00:32:11.255Z,5.85
2022-11-07T00:34:40.677Z,5.86
2022-11-07T00:37:09.114Z,5.92
2022-11-07T00:39:39.113Z,5.93
2022-11-07T00:42:07.490Z,5.84
2022-11-07T00:44:35.892Z,5.84
2022-11-07T00:47:04.199Z,5.91
2022-11-07T00:49:32.480Z,5.94
2022-11-07T00:52:00.751Z,5.98
2022-11-07T00:54:28.981Z,6.00
2022-11-07T00:56:58.696Z,6.03
2022-11-07T00:59:27.052Z,5.87
2022-11-07T01:01:55.430Z,6.06
2022-11-07T01:04:41.140Z,6.10
2022-11-07T01:07:10.518Z,6.09
2022-11-07T01:09:38.837Z,6.08
2022-11-07T01:12:08.772Z,6.11
2022-11-07T01:14:37.292Z,6.12
2022-11-07T01:17:05.758Z,6.03
2022-11-07T01:19:34.254Z,6.01
2022-11-07T01:22:02.725Z,5.93
2022-11-07T01:24:31.118Z,5.87
2022-11-07T01:26:59.825Z,5.86
2022-11-07T01:29:29.966Z,5.79
2022-11-07T01:31:58.544Z,5.75
2022-11-07T01:34:27.303Z,5.62
2022-11-07T01:36:55.728Z,5.56
2022-11-07T01:39:24.121Z,5.47
2022-11-07T01:41:52.632Z,5.43
2022-11-07T01:44:59.416Z,5.43
2022-11-07T01:48:34.958Z,5.38
2022-11-07T01:51:05.762Z,5.31
2022-11-07T01:53:36.407Z,5.26
2022-11-07T01:56:11.025Z,5.24
2022-11-07T01:58:41.771Z,5.31
2022-11-07T02:01:13.753Z,5.26
2022-11-07T02:03:44.344Z,5.15
2022-11-07T02:06:26.911Z,4.97
2022-11-07T02:08:58.565Z,5.11
2022-11-07T02:11:28.985Z,5.12
2022-11-07T02:13:59.462Z,5.03
2022-11-07T02:16:33.414Z,4.95
2022-11-07T02:19:09.056Z,4.93
2022-11-07T02:21:48.096Z,4.92
2022-11-07T02:24:29.432Z,4.95
2022-11-07T02:27:02.804Z,5.00
2022-11-07T02:29:41.278Z,5.03
2022-11-07T02:32:14.658Z,4.86
2022-11-07T02:34:43.452Z,4.99
2022-11-07T02:37:20.134Z,5.01
2022-11-07T02:39:56.178Z,4.99
2022-11-07T02:42:43.829Z,5.02
2022-11-07T02:45:23.810Z,4.97
2022-11-07T02:47:55.991Z,4.95
2022-11-07T02:50:28.888Z,4.94
2022-11-07T02:53:01.448Z,4.93
2022-11-07T02:55:37.380Z,4.91
2022-11-07T02:58:07.760Z,4.55
2022-11-07T03:00:37.636Z,4.86
2022-11-07T03:03:14.379Z,4.90
2022-11-07T03:05:52.620Z,4.88
2022-11-07T03:08:35.414Z,4.93
2022-11-07T03:11:10.405Z,4.94
2022-11-07T03:13:38.895Z,4.88
2022-11-07T03:16:14.012Z,4.90
2022-11-07T03:18:48.375Z,4.90
2022-11-07T03:21:19.660Z,4.85
2022-11-07T03:23:57.860Z,4.91
2022-11-07T03:26:31.280Z,4.86
2022-11-07T03:29:15.232Z,4.78
2022-11-07T03:32:16.221Z,4.75
2022-11-07T03:35:01.981Z,4.70
2022-11-07T03:37:39.717Z,4.69
2022-11-07T03:40:13.795Z,4.68
2022-11-07T03:42:49.326Z,4.72
2022-11-07T03:45:19.771Z,4.69
2022-11-07T03:47:53.423Z,4.71
2022-11-07T03:50:30.781Z,4.71
2022-11-07T03:53:03.664Z,4.68
2022-11-07T03:55:35.568Z,4.56
2022-11-07T03:58:22.313Z,4.66
2022-11-07T04:00:59.963Z,4.62
2022-11-07T04:04:13.182Z,4.62
2022-11-07T04:06:50.611Z,4.54
2022-11-07T04:09:20.336Z,4.53
2022-11-07T04:12:07.333Z,4.55
2022-11-07T04:14:55.144Z,4.56
2022-11-07T04:17:25.316Z,4.53
2022-11-07T04:19:58.058Z,4.55
2022-11-07T04:22:29.919Z,4.61
2022-11-07T04:25:01.865Z,4.60
2022-11-07T04:27:50.630Z,4.58
2022-11-07T04:30:29.693Z,4.59
2022-11-07T04:34:18.267Z,4.56
2022-11-07T04:36:43.518Z,4.45
2022-11-07T04:39:13.601Z,4.43
2022-11-07T04:42:22.144Z,4.35
2022-11-07T04:44:59.749Z,4.28
2022-11-07T04:47:34.186Z,4.27
2022-11-07T04:54:43.788Z,4.24
2022-11-07T04:57:16.453Z,4.20
2022-11-07T04:59:46.264Z,4.20
2022-11-07T05:02:15.213Z,4.13
2022-11-07T05:04:45.973Z,4.16
2022-11-07T05:07:15.302Z,4.07
2022-11-07T05:09:51.549Z,4.08
2022-11-07T05:12:20.856Z,3.91
2022-11-07T05:14:52.984Z,3.93
2022-11-07T05:17:26.854Z,3.95
2022-11-07T05:19:58.000Z,3.97
2022-11-07T05:22:44.351Z,4.02
2022-11-07T05:25:12.652Z,3.95
2022-11-07T05:28:02.425Z,4.01
2022-11-07T05:30:33.666Z,4.03
2022-11-07T05:33:09.659Z,4.04
2022-11-07T05:35:39.931Z,4.01
2022-11-07T05:38:08.753Z,3.97
2022-11-07T05:40:38.269Z,3.97
2022-11-07T05:43:08.909Z,3.99
2022-11-07T05:45:38.759Z,4.04
2022-11-07T05:48:08.866Z,4.07
2022-11-07T05:50:37.932Z,4.05
2022-11-07T05:53:08.472Z,4.05
2022-11-07T05:55:37.096Z,3.97
2022-11-07T05:58:11.259Z,3.98
2022-11-07T06:00:39.716Z,3.96
2022-11-07T06:03:08.332Z,3.94
2022-11-07T06:05:38.144Z,3.88
2022-11-07T06:08:09.378Z,3.87
2022-11-07T06:10:38.008Z,3.87
2022-11-07T06:13:08.171Z,3.92
2022-11-07T06:15:38.412Z,3.89
2022-11-07T06:18:09.469Z,3.85
2022-11-07T06:20:38.040Z,3.83
2022-11-07T06:23:08.176Z,3.83
2022-11-07T06:25:37.457Z,3.83
2022-11-07T06:28:07.845Z,3.93
2022-11-07T06:30:36.814Z,3.93
2022-11-07T06:33:06.176Z,3.92
2022-11-07T06:35:35.555Z,3.91
2022-11-07T06:38:04.661Z,3.93
2022-11-07T06:40:34.705Z,3.78
2022-11-07T06:43:09.333Z,3.88
2022-11-07T06:45:38.163Z,3.84
2022-11-07T06:48:07.236Z,3.84
2022-11-07T06:50:36.029Z,3.83
2022-11-07T06:53:04.889Z,3.85
2022-11-07T06:55:35.435Z,3.87
2022-11-07T06:58:06.703Z,3.87
2022-11-07T07:00:37.072Z,3.85
2022-11-07T07:03:05.910Z,3.93
2022-11-07T07:05:34.616Z,3.97
2022-11-07T07:08:03.157Z,4.02
2022-11-07T07:10:31.766Z,4.12
2022-11-07T07:13:02.267Z,4.20
2022-11-07T07:15:47.513Z,4.28
2022-11-07T07:18:18.916Z,4.38
2022-11-07T07:20:47.616Z,4.52
2022-11-07T07:23:16.121Z,4.81
2022-11-07T07:25:44.715Z,5.15
2022-11-07T07:28:14.704Z,5.53
2022-11-07T07:30:47.166Z,5.85
2022-11-07T07:33:19.243Z,6.31
2022-11-07T07:35:47.579Z,6.73
2022-11-07T07:38:15.794Z,7.23
2022-11-07T07:40:44.051Z,7.62
2022-11-07T07:43:12.552Z,8.04
2022-11-07T07:45:42.423Z,8.47
2022-11-07T07:48:10.655Z,8.84
2022-11-07T07:50:38.952Z,9.23
2022-11-07T07:53:09.207Z,9.57
2022-11-07T07:55:37.755Z,9.86
2022-11-07T07:58:06.069Z,9.98
2022-11-07T08:00:34.395Z,10.10
2022-11-07T08:03:05.435Z,10.22
2022-11-07T08:05:33.794Z,10.32
2022-11-07T08:08:02.330Z,10.45
2022-11-07T08:10:45.901Z,10.52
2022-11-07T08:13:14.423Z,10.76
2022-11-07T08:15:42.962Z,11.00
2022-11-07T08:18:12.657Z,11.08
2022-11-07T08:20:40.958Z,11.12
2022-11-07T08:23:16.132Z,11.19
2022-11-07T08:25:49.749Z,11.23
2022-11-07T08:28:18.282Z,11.22
2022-11-07T08:30:47.522Z,11.26
2022-11-07T08:33:17.956Z,11.34
2022-11-07T08:35:46.621Z,11.40
2022-11-07T08:38:14.867Z,11.49
2022-11-07T08:40:43.222Z,11.63
2022-11-07T08:43:11.474Z,11.76
2022-11-07T08:45:39.745Z,11.91
2022-11-07T08:48:08.204Z,12.03
2022-11-07T08:50:37.927Z,12.06
2022-11-07T08:53:06.329Z,12.11
2022-11-07T08:55:34.643Z,12.18
2022-11-07T08:58:04.617Z,12.18
2022-11-07T09:00:34.469Z,12.11
2022-11-07T09:05:55.002Z,12.00
2022-11-07T09:08:23.813Z,12.13
2022-11-07T09:10:52.477Z,12.13
2022-11-07T09:13:21.504Z,12.21
2022-11-07T09:15:51.845Z,12.28
2022-11-07T09:18:21.152Z,12.34
2022-11-07T09:20:49.923Z,12.39
2022-11-07T09:23:20.565Z,12.42
2022-11-07T09:25:49.647Z,12.48
2022-11-07T09:28:18.427Z,12.52
2022-11-07T09:30:47.242Z,12.57
2022-11-07T09:33:16.113Z,12.65
2022-11-07T09:35:45.031Z,12.72
2022-11-07T09:38:14.713Z,12.84
2022-11-07T09:40:54.655Z,12.95
2022-11-07T09:43:35.689Z,13.02
2022-11-07T09:46:18.412Z,13.06
2022-11-07T09:48:52.513Z,13.09
2022-11-07T09:51:28.834Z,13.13
2022-11-07T09:54:01.618Z,13.17
2022-11-07T09:56:34.436Z,13.24
2022-11-07T09:59:13.784Z,13.32
2022-11-07T10:01:43.412Z,13.39
2022-11-07T10:04:24.655Z,13.51
2022-11-07T10:06:58.966Z,13.61
2022-11-07T10:09:38.185Z,13.72
2022-11-07T10:12:19.465Z,13.79
2022-11-07T10:14:59.520Z,13.85
2022-11-07T10:17:35.772Z,13.95
2022-11-07T10:20:12.987Z,14.04
2022-11-07T10:23:00.435Z,14.09
2022-11-07T10:25:36.885Z,14.14
2022-11-07T10:28:20.210Z,14.22
2022-11-07T10:30:52.257Z,14.31
2022-11-07T10:33:38.706Z,14.39
2022-11-07T10:36:18.580Z,14.53
2022-11-07T10:38:47.565Z,14.65
2022-11-07T10:41:18.229Z,14.77
2022-11-07T10:43:53.346Z,14.89
2022-11-07T10:46:27.022Z,14.99
2022-11-07T10:48:58.205Z,14.44
2022-11-07T10:51:38.382Z,15.21
2022-11-07T10:54:07.623Z,15.33
2022-11-07T10:56:46.925Z,15.43
2022-11-07T10:59:30.131Z,15.52
2022-11-07T11:02:02.922Z,15.61
2022-11-07T11:04:34.021Z,15.58
2022-11-07T11:07:04.912Z,15.80
2022-11-07T11:09:35.806Z,15.90
2022-11-07T11:12:12.996Z,15.83
2022-11-07T11:14:43.507Z,16.08
2022-11-07T11:17:25.787Z,16.16
2022-11-07T11:19:55.683Z,16.24
2022-11-07T11:22:29.296Z,16.36
2022-11-07T11:25:05.141Z,15.75
2022-11-07T11:27:36.421Z,16.48
2022-11-07T11:30:08.889Z,16.56
2022-11-07T11:32:42.530Z,16.60
2022-11-07T11:35:25.968Z,16.64
2022-11-07T11:38:00.527Z,16.67
2022-11-07T11:40:34.187Z,16.72
2022-11-07T11:43:15.909Z,16.79
2022-11-07T11:46:00.625Z,16.81
2022-11-07T11:48:35.556Z,16.85
2022-11-07T11:51:08.018Z,16.91
2022-11-07T11:53:36.760Z,16.99
2022-11-07T11:56:24.762Z,17.06
2022-11-07T11:59:03.181Z,17.11
2022-11-07T12:01:40.889Z,17.12
2022-11-07T12:04:34.422Z,17.15
2022-11-07T12:07:12.275Z,17.14
2022-11-07T12:09:47.210Z,17.17
2022-11-07T12:12:27.649Z,17.18
2022-11-07T12:15:19.398Z,17.21
2022-11-07T12:17:55.066Z,17.21
2022-11-07T12:20:28.336Z,17.24
2022-11-07T12:23:13.715Z,17.25
2022-11-07T12:25:47.621Z,17.26
2022-11-07T12:28:32.256Z,17.28
2022-11-07T12:31:14.130Z,17.29
2022-11-07T12:33:50.676Z,17.30
2022-11-07T12:36:34.279Z,17.31
2022-11-07T12:39:36.799Z,17.32
2022-11-07T12:42:09.787Z,17.38
2022-11-07T12:44:56.190Z,17.44
2022-11-07T12:47:41.217Z,17.50
2022-11-07T12:50:29.816Z,17.17
2022-11-07T12:53:17.321Z,17.55
2022-11-07T12:55:50.497Z,17.58
2022-11-07T12:58:23.689Z,17.64
2022-11-07T13:00:53.521Z,17.68
2022-11-07T13:03:50.718Z,17.69
2022-11-07T13:06:28.889Z,17.69
2022-11-07T13:09:08.307Z,17.68
2022-11-07T13:11:46.480Z,17.68
2022-11-07T13:14:24.833Z,16.83
2022-11-07T13:17:06.089Z,17.46
2022-11-07T13:19:36.313Z,17.58
2022-11-07T13:22:08.483Z,17.62
2022-11-07T13:24:51.360Z,17.63
2022-11-07T13:27:24.537Z,17.58
2022-11-07T13:29:53.630Z,17.55
2022-11-07T13:32:22.338Z,17.57
2022-11-07T13:34:57.164Z,17.58
2022-11-07T13:37:29.639Z,17.56
2022-11-07T13:40:03.290Z,17.59
2022-11-07T13:42:35.114Z,17.63
2022-11-07T13:45:19.389Z,17.66
2022-11-07T13:47:49.186Z,17.67
2022-11-07T13:50:23.192Z,17.71
2022-11-07T13:53:00.598Z,17.74
2022-11-07T13:55:35.743Z,17.76
2022-11-07T13:58:11.443Z,17.78
2022-11-07T14:00:40.409Z,17.75
2022-11-07T14:03:24.151Z,17.75
2022-11-07T14:05:53.174Z,17.70
2022-11-07T14:08:27.170Z,17.74
2022-11-07T14:10:55.908Z,17.75
2022-11-07T14:13:29.027Z,17.77
2022-11-07T14:16:00.791Z,17.77
2022-11-07T14:18:32.900Z,17.76
2022-11-07T14:21:01.519Z,17.72
2022-11-07T14:23:33.849Z,17.70
2022-11-07T14:26:03.772Z,17.68
2022-11-07T14:28:36.169Z,17.66
2022-11-07T14:31:15.052Z,17.66
2022-11-07T14:33:49.978Z,17.63
2022-11-07T14:36:19.496Z,17.59
2022-11-07T14:38:50.810Z,17.59
2022-11-07T14:41:19.856Z,17.39
2022-11-07T14:43:49.032Z,17.60
2022-11-07T14:46:20.544Z,17.62
2022-11-07T14:48:51.507Z,17.57
2022-11-07T14:51:24.520Z,17.55
2022-11-07T14:54:00.689Z,17.48
2022-11-07T14:56:33.037Z,17.31
2022-11-07T14:59:01.743Z,17.33
2022-11-07T15:01:32.490Z,17.29
2022-11-07T15:04:02.768Z,17.22
2022-11-07T15:06:34.526Z,17.18
2022-11-07T15:09:07.287Z,17.14
2022-11-07T15:11:37.287Z,17.07
2022-11-07T15:14:08.136Z,17.02
2022-11-07T15:16:40.198Z,16.95
2022-11-07T15:19:11.164Z,16.86
2022-11-07T15:21:52.080Z,16.83
2022-11-07T15:24:34.409Z,16.76
2022-11-07T15:27:04.239Z,16.68
2022-11-07T15:29:34.134Z,16.61
2022-11-07T15:32:07.810Z,16.55
2022-11-07T15:34:58.631Z,16.48
2022-11-07T15:37:26.951Z,16.39
2022-11-07T15:39:56.572Z,16.34
2022-11-07T15:42:24.849Z,16.28
2022-11-07T15:44:53.023Z,16.22
2022-11-07T15:47:23.549Z,16.15
2022-11-07T15:49:52.104Z,16.07
2022-11-07T15:52:20.317Z,16.00
2022-11-07T15:54:48.547Z,15.93
2022-11-07T15:57:18.989Z,15.87
2022-11-07T15:59:47.363Z,15.77
2022-11-07T16:02:18.228Z,15.69
2022-11-07T16:04:46.552Z,15.62
2022-11-07T16:07:18.698Z,15.55
2022-11-07T16:09:48.925Z,15.48
2022-11-07T16:12:19.808Z,15.41
2022-11-07T16:14:48.030Z,15.30
2022-11-07T16:17:18.239Z,15.23
2022-11-07T16:19:46.667Z,15.12
2022-11-07T16:22:16.393Z,14.97
2022-11-07T16:24:44.543Z,14.83
2022-11-07T16:27:17.345Z,14.66
2022-11-07T16:29:47.354Z,14.62
2022-11-07T16:32:18.495Z,14.50
2022-11-07T16:34:47.808Z,14.37
2022-11-07T16:37:16.399Z,14.25
2022-11-07T16:39:44.665Z,14.09
2022-11-07T16:42:15.914Z,13.94
2022-11-07T16:44:44.222Z,13.86
2022-11-07T16:47:17.067Z,13.68
2022-11-07T16:49:45.299Z,13.44
2022-11-07T16:52:16.198Z,13.18
2022-11-07T16:54:44.443Z,13.14
2022-11-07T16:57:13.616Z,12.94
2022-11-07T16:59:41.992Z,13.03
2022-11-07T17:02:21.150Z,12.95
2022-11-07T17:04:50.962Z,12.82
2022-11-07T17:07:22.755Z,12.60
2022-11-07T17:09:51.678Z,12.46
2022-11-07T17:12:21.843Z,12.28
2022-11-07T17:14:51.047Z,12.30
2022-11-07T17:17:21.062Z,12.21
2022-11-07T17:19:49.357Z,12.12
2022-11-07T17:22:17.883Z,12.09
2022-11-07T17:24:47.344Z,11.97
2022-11-07T17:27:21.914Z,11.91
2022-11-07T17:29:50.515Z,11.91
2022-11-07T17:32:20.133Z,11.80
2022-11-07T17:35:10.690Z,11.83
2022-11-07T17:37:38.316Z,11.75
2022-11-07T17:40:07.539Z,11.66
2022-11-07T17:42:38.301Z,11.53
2022-11-07T17:45:07.901Z,11.44
2022-11-07T17:47:37.456Z,11.39
2022-11-07T17:50:06.146Z,11.30
2022-11-07T17:52:34.524Z,11.25
2022-11-07T17:55:02.748Z,11.21
2022-11-07T17:57:30.933Z,11.18
2022-11-07T17:59:59.171Z,11.11
2022-11-07T18:02:27.521Z,11.01
2022-11-07T18:04:57.447Z,10.98
2022-11-07T18:07:25.693Z,10.95
2022-11-07T18:09:54.915Z,10.87
2022-11-07T18:12:23.476Z,10.82
2022-11-07T18:14:51.694Z,10.79
2022-11-07T18:17:20.851Z,10.71
2022-11-07T18:19:49.468Z,10.71
2022-11-07T18:22:19.041Z,10.64
2022-11-07T18:24:47.640Z,10.56
2022-11-07T18:27:16.049Z,10.54
2022-11-07T18:29:44.424Z,10.46
2022-11-07T18:32:13.997Z,10.18
2022-11-07T18:34:43.462Z,10.36
2022-11-07T18:37:11.704Z,10.32
2022-11-07T18:39:41.509Z,10.25
2022-11-07T18:42:09.714Z,10.22
2022-11-07T18:44:38.082Z,10.13
2022-11-07T18:47:06.416Z,10.07
2022-11-07T18:49:34.645Z,9.96
2022-11-07T18:52:02.837Z,9.83
2022-11-07T18:54:31.051Z,11.01
2022-11-07T18:57:00.696Z,10.42
2022-11-07T18:59:29.061Z,10.17
2022-11-07T19:01:57.264Z,10.04
2022-11-07T19:04:25.513Z,9.95
2022-11-07T19:06:59.504Z,9.92
2022-11-07T19:09:29.543Z,9.88
2022-11-07T19:11:59.028Z,9.78
2022-11-07T19:14:29.828Z,9.76
2022-11-07T19:16:58.757Z,9.67
2022-11-07T19:19:26.936Z,9.69
2022-11-07T19:21:55.151Z,9.68
2022-11-07T19:24:23.397Z,9.71
2022-11-07T19:26:51.668Z,9.69
2022-11-07T19:29:20.035Z,9.59
2022-11-07T19:31:49.709Z,9.46
2022-11-07T19:34:18.203Z,9.35
2022-11-07T19:36:46.454Z,9.28
2022-11-07T19:39:14.646Z,9.25
2022-11-07T19:41:43.000Z,9.17
2022-11-07T19:44:11.822Z,9.13
2022-11-07T19:46:40.107Z,9.15
2022-11-07T19:49:09.806Z,9.13
2022-11-07T19:51:38.006Z,9.07
2022-11-07T19:54:07.665Z,9.00
2022-11-07T19:56:35.869Z,8.93
2022-11-07T19:59:04.168Z,8.93
2022-11-07T20:01:34.167Z,8.93
2022-11-07T20:04:03.614Z,8.94
2022-11-07T20:06:36.570Z,8.88
2022-11-07T20:09:07.312Z,8.79
2022-11-07T20:11:35.769Z,8.79
2022-11-07T20:14:04.422Z,8.82
2022-11-07T20:16:33.746Z,8.79
2022-11-07T20:19:02.312Z,8.70
2022-11-07T20:21:33.849Z,8.37
2022-11-07T20:24:02.131Z,8.65
2022-11-07T20:26:32.127Z,8.50
2022-11-07T20:29:00.738Z,8.62
2022-11-07T20:31:32.794Z,8.58
2022-11-07T20:34:03.742Z,8.27
2022-11-07T20:36:33.989Z,8.48
2022-11-07T20:39:03.466Z,8.42
2022-11-07T20:41:31.998Z,8.48
2022-11-07T20:44:03.932Z,8.49
2022-11-07T20:46:33.285Z,8.38
2022-11-07T20:49:01.780Z,8.34
2022-11-07T20:51:30.148Z,8.06
2022-11-07T20:54:00.236Z,8.31
2022-11-07T20:56:29.942Z,8.30
2022-11-07T20:58:59.138Z,8.26
2022-11-07T21:01:36.227Z,8.28
2022-11-07T21:04:05.217Z,8.15
2022-11-07T21:06:33.662Z,8.09
2022-11-07T21:09:03.729Z,8.05
2022-11-07T21:11:32.268Z,8.04
2022-11-07T21:14:00.676Z,8.09
2022-11-07T21:16:29.647Z,8.10
2022-11-07T21:18:58.046Z,8.10
2022-11-07T21:21:28.616Z,7.98
2022-11-07T21:23:58.734Z,8.04
2022-11-07T21:26:31.685Z,8.03
2022-11-07T21:29:00.676Z,7.97
2022-11-07T21:31:33.251Z,7.74
2022-11-07T21:34:01.502Z,7.87
2022-11-07T21:36:31.575Z,7.80
2022-11-07T21:39:01.394Z,7.79
2022-11-07T21:41:31.946Z,7.58
2022-11-07T21:44:00.671Z,7.74
2022-11-07T21:46:30.524Z,7.69
2022-11-07T21:49:00.117Z,7.61
2022-11-07T21:51:30.659Z,7.55
2022-11-07T21:54:00.157Z,7.74
2022-11-07T21:56:31.582Z,7.64
2022-11-07T21:59:01.775Z,7.62
2022-11-07T22:01:35.111Z,7.59
2022-11-07T22:04:07.502Z,7.70
2022-11-07T22:06:38.302Z,7.72
2022-11-07T22:09:07.846Z,7.72
2022-11-07T22:11:38.937Z,7.68
2022-11-07T22:14:07.271Z,7.71
2022-11-07T22:16:36.284Z,7.72
2022-11-07T22:19:09.711Z,7.64
2022-11-07T22:21:40.804Z,7.55
2022-11-07T22:24:09.717Z,7.49
2022-11-07T22:26:39.439Z,7.46
2022-11-07T22:29:07.645Z,7.41
2022-11-07T22:31:36.392Z,7.43
2022-11-07T22:34:04.695Z,7.37
2022-11-07T22:36:32.887Z,7.37
2022-11-07T22:39:00.995Z,7.37
2022-11-07T22:41:29.536Z,7.44
2022-11-07T22:43:59.743Z,7.47
2022-11-07T22:46:29.668Z,7.48
2022-11-07T22:48:59.024Z,7.38
2022-11-07T22:51:29.123Z,7.22
2022-11-07T22:53:59.065Z,7.48
2022-11-07T22:56:27.796Z,7.52
2022-11-07T22:58:56.242Z,7.56
2022-11-07T23:01:31.139Z,7.62
2022-11-07T23:04:00.230Z,7.64
2022-11-07T23:06:29.982Z,7.64
2022-11-07T23:09:00.296Z,7.63
2022-11-07T23:11:47.603Z,7.66
2022-11-07T23:14:18.783Z,7.45
2022-11-07T23:16:50.064Z,7.71
2022-11-07T23:19:20.907Z,7.79
2022-11-07T23:21:49.485Z,7.76
2022-11-07T23:24:18.267Z,7.68
2022-11-07T23:26:46.541Z,7.85
2022-11-07T23:29:19.462Z,7.96
2022-11-07T23:31:50.260Z,7.99
2022-11-07T23:34:19.791Z,7.81
2022-11-07T23:36:50.699Z,7.98
2022-11-07T23:39:20.720Z,7.68
2022-11-07T23:41:49.070Z,8.04
2022-11-07T23:44:17.318Z,8.07
2022-11-07T23:47:03.556Z,8.10
2022-11-07T23:49:50.336Z,8.10
2022-11-07T23:52:19.339Z,8.11
2022-11-07T23:55:04.911Z,8.15
2022-11-07T23:57:55.530Z,8.18
